<?xml version="1.0" encoding="utf-8"?>
<gpx xmlns:xsi="http://www.w3.org/2001/XMLSchema-instance" xmlns:xsd="http://www.w3.org/2001/XMLSchema" version="1.1" creator="Shapelink.com" xmlns="http://www.topografix.com/GPX/1/1" xmlns:gpxtpx="http://www.garmin.com/xmlschemas/TrackPointExtension/v1">
  <metadata>
    <name>Løping 1.56 km, 2012-04-16</name>
    <desc></desc>
    <author><name>Mikael Blom</name></author> 
    <time>2012-04-16T17:45:29Z</time>
  </metadata>
  <trk>
    <name>Løping 1.56 km, 2012-04-16</name>
    <trkseg>
      <trkpt lat="59.9506626" lon="17.7098048">
        <ele>44.358</ele>
        <time>2012-04-16T17:45:29Z</time>
      </trkpt>
      <trkpt lat="59.9505349" lon="17.7097018">
        <ele>43.3966</ele>
        <time>2012-04-16T17:45:34Z</time>
      </trkpt>
      <trkpt lat="59.9504259" lon="17.7096268">
        <ele>42.4354</ele>
        <time>2012-04-16T17:45:40Z</time>
      </trkpt>
      <trkpt lat="59.9503604" lon="17.7095744">
        <ele>41.9547</ele>
        <time>2012-04-16T17:45:44Z</time>
      </trkpt>
      <trkpt lat="59.9502902" lon="17.7094844">
        <ele>45.3192</ele>
        <time>2012-04-16T17:45:49Z</time>
      </trkpt>
      <trkpt lat="59.9502286" lon="17.7093942">
        <ele>47.7225</ele>
        <time>2012-04-16T17:45:53Z</time>
      </trkpt>
      <trkpt lat="59.9501594" lon="17.7092957">
        <ele>51.5679</ele>
        <time>2012-04-16T17:45:58Z</time>
      </trkpt>
      <trkpt lat="59.950118" lon="17.7091959">
        <ele>53.9712</ele>
        <time>2012-04-16T17:46:03Z</time>
      </trkpt>
      <trkpt lat="59.9500621" lon="17.709064">
        <ele>56.3745</ele>
        <time>2012-04-16T17:46:09Z</time>
      </trkpt>
      <trkpt lat="59.950058" lon="17.7090407">
        <ele>57.3358</ele>
        <time>2012-04-16T17:46:10Z</time>
      </trkpt>
      <trkpt lat="59.9506169" lon="17.7097847">
        <ele>35.2255</ele>
        <time>2012-04-16T17:47:49Z</time>
      </trkpt>
      <trkpt lat="59.9506034" lon="17.709769">
        <ele>35.7061</ele>
        <time>2012-04-16T17:47:50Z</time>
      </trkpt>
      <trkpt lat="59.9505874" lon="17.7097588">
        <ele>35.7061</ele>
        <time>2012-04-16T17:47:51Z</time>
      </trkpt>
      <trkpt lat="59.9504948" lon="17.7096599">
        <ele>39.5513</ele>
        <time>2012-04-16T17:47:55Z</time>
      </trkpt>
      <trkpt lat="59.9503987" lon="17.7095991">
        <ele>43.8773</ele>
        <time>2012-04-16T17:48:00Z</time>
      </trkpt>
      <trkpt lat="59.9503186" lon="17.7095081">
        <ele>46.2806</ele>
        <time>2012-04-16T17:48:04Z</time>
      </trkpt>
      <trkpt lat="59.9502824" lon="17.7094237">
        <ele>48.684</ele>
        <time>2012-04-16T17:48:07Z</time>
      </trkpt>
      <trkpt lat="59.9502223" lon="17.7093355">
        <ele>53.4905</ele>
        <time>2012-04-16T17:48:13Z</time>
      </trkpt>
      <trkpt lat="59.9501725" lon="17.7092657">
        <ele>56.3745</ele>
        <time>2012-04-16T17:48:17Z</time>
      </trkpt>
      <trkpt lat="59.9501301" lon="17.7091884">
        <ele>59.2584</ele>
        <time>2012-04-16T17:48:21Z</time>
      </trkpt>
      <trkpt lat="59.9501" lon="17.7091409">
        <ele>61.181</ele>
        <time>2012-04-16T17:48:24Z</time>
      </trkpt>
      <trkpt lat="59.9500543" lon="17.7090819">
        <ele>62.6229</ele>
        <time>2012-04-16T17:48:30Z</time>
      </trkpt>
      <trkpt lat="59.9500192" lon="17.7090522">
        <ele>62.6229</ele>
        <time>2012-04-16T17:48:33Z</time>
      </trkpt>
      <trkpt lat="59.9498161" lon="17.7094822">
        <ele>63.1036</ele>
        <time>2012-04-16T17:49:28Z</time>
      </trkpt>
      <trkpt lat="59.9498187" lon="17.709506">
        <ele>63.1036</ele>
        <time>2012-04-16T17:49:29Z</time>
      </trkpt>
      <trkpt lat="59.9498225" lon="17.7095248">
        <ele>63.1036</ele>
        <time>2012-04-16T17:49:30Z</time>
      </trkpt>
      <trkpt lat="59.949891" lon="17.70963">
        <ele>62.6229</ele>
        <time>2012-04-16T17:49:34Z</time>
      </trkpt>
      <trkpt lat="59.9499081" lon="17.7096532">
        <ele>62.6229</ele>
        <time>2012-04-16T17:49:35Z</time>
      </trkpt>
      <trkpt lat="59.9499664" lon="17.7098077">
        <ele>62.1423</ele>
        <time>2012-04-16T17:49:42Z</time>
      </trkpt>
      <trkpt lat="59.9499932" lon="17.7099729">
        <ele>60.7003</ele>
        <time>2012-04-16T17:49:48Z</time>
      </trkpt>
      <trkpt lat="59.9499954" lon="17.7100013">
        <ele>60.2197</ele>
        <time>2012-04-16T17:49:49Z</time>
      </trkpt>
      <trkpt lat="59.9499861" lon="17.7101815">
        <ele>57.8165</ele>
        <time>2012-04-16T17:49:55Z</time>
      </trkpt>
      <trkpt lat="59.9499965" lon="17.7102024">
        <ele>57.8165</ele>
        <time>2012-04-16T17:49:56Z</time>
      </trkpt>
      <trkpt lat="59.9500216" lon="17.7102438">
        <ele>57.8165</ele>
        <time>2012-04-16T17:49:58Z</time>
      </trkpt>
      <trkpt lat="59.9500641" lon="17.7103254">
        <ele>57.8165</ele>
        <time>2012-04-16T17:50:03Z</time>
      </trkpt>
      <trkpt lat="59.9501047" lon="17.7103249">
        <ele>57.8165</ele>
        <time>2012-04-16T17:50:06Z</time>
      </trkpt>
      <trkpt lat="59.9501491" lon="17.710424">
        <ele>54.4518</ele>
        <time>2012-04-16T17:50:10Z</time>
      </trkpt>
      <trkpt lat="59.9501482" lon="17.71044">
        <ele>53.0098</ele>
        <time>2012-04-16T17:50:11Z</time>
      </trkpt>
      <trkpt lat="59.9501736" lon="17.710518">
        <ele>48.684</ele>
        <time>2012-04-16T17:50:16Z</time>
      </trkpt>
      <trkpt lat="59.9501938" lon="17.7105622">
        <ele>44.358</ele>
        <time>2012-04-16T17:50:21Z</time>
      </trkpt>
      <trkpt lat="59.9502638" lon="17.7106696">
        <ele>42.916</ele>
        <time>2012-04-16T17:50:27Z</time>
      </trkpt>
      <trkpt lat="59.9503448" lon="17.710767">
        <ele>41.9547</ele>
        <time>2012-04-16T17:50:33Z</time>
      </trkpt>
      <trkpt lat="59.9503605" lon="17.7108051">
        <ele>41.9547</ele>
        <time>2012-04-16T17:50:35Z</time>
      </trkpt>
      <trkpt lat="59.9504176" lon="17.710858">
        <ele>41.9547</ele>
        <time>2012-04-16T17:50:39Z</time>
      </trkpt>
      <trkpt lat="59.9504638" lon="17.7109371">
        <ele>42.916</ele>
        <time>2012-04-16T17:50:44Z</time>
      </trkpt>
      <trkpt lat="59.9505404" lon="17.7110457">
        <ele>43.3966</ele>
        <time>2012-04-16T17:50:49Z</time>
      </trkpt>
      <trkpt lat="59.9505534" lon="17.7110653">
        <ele>43.3966</ele>
        <time>2012-04-16T17:50:50Z</time>
      </trkpt>
      <trkpt lat="59.9505881" lon="17.7112058">
        <ele>42.916</ele>
        <time>2012-04-16T17:50:57Z</time>
      </trkpt>
      <trkpt lat="59.9506062" lon="17.7113108">
        <ele>43.3966</ele>
        <time>2012-04-16T17:51:01Z</time>
      </trkpt>
      <trkpt lat="59.9506232" lon="17.7113661">
        <ele>41.9547</ele>
        <time>2012-04-16T17:51:10Z</time>
      </trkpt>
      <trkpt lat="59.9506205" lon="17.711363">
        <ele>41.9547</ele>
        <time>2012-04-16T17:51:11Z</time>
      </trkpt>
      <trkpt lat="59.950533" lon="17.7111507">
        <ele>42.4354</ele>
        <time>2012-04-16T17:51:16Z</time>
      </trkpt>
      <trkpt lat="59.9504636" lon="17.7110037">
        <ele>43.8773</ele>
        <time>2012-04-16T17:51:20Z</time>
      </trkpt>
      <trkpt lat="59.9503713" lon="17.7108653">
        <ele>45.7999</ele>
        <time>2012-04-16T17:51:24Z</time>
      </trkpt>
      <trkpt lat="59.9502741" lon="17.7106768">
        <ele>47.7225</ele>
        <time>2012-04-16T17:51:28Z</time>
      </trkpt>
      <trkpt lat="59.9501865" lon="17.7105505">
        <ele>49.6453</ele>
        <time>2012-04-16T17:51:33Z</time>
      </trkpt>
      <trkpt lat="59.9501262" lon="17.7104297">
        <ele>52.0486</ele>
        <time>2012-04-16T17:51:37Z</time>
      </trkpt>
      <trkpt lat="59.9500703" lon="17.7103058">
        <ele>54.4518</ele>
        <time>2012-04-16T17:51:41Z</time>
      </trkpt>
      <trkpt lat="59.9500038" lon="17.7102064">
        <ele>57.3358</ele>
        <time>2012-04-16T17:51:45Z</time>
      </trkpt>
      <trkpt lat="59.9499361" lon="17.7100551">
        <ele>59.7391</ele>
        <time>2012-04-16T17:51:50Z</time>
      </trkpt>
      <trkpt lat="59.9498844" lon="17.7099168">
        <ele>63.5844</ele>
        <time>2012-04-16T17:51:55Z</time>
      </trkpt>
      <trkpt lat="59.9498565" lon="17.709878">
        <ele>64.0651</ele>
        <time>2012-04-16T17:51:57Z</time>
      </trkpt>
      <trkpt lat="59.9497693" lon="17.7097664">
        <ele>63.1036</ele>
        <time>2012-04-16T17:52:03Z</time>
      </trkpt>
      <trkpt lat="59.949731" lon="17.7097159">
        <ele>62.1423</ele>
        <time>2012-04-16T17:52:06Z</time>
      </trkpt>
      <trkpt lat="59.9495872" lon="17.7102834">
        <ele>62.1423</ele>
        <time>2012-04-16T17:52:58Z</time>
      </trkpt>
      <trkpt lat="59.9496105" lon="17.7103913">
        <ele>62.1423</ele>
        <time>2012-04-16T17:53:02Z</time>
      </trkpt>
      <trkpt lat="59.9496297" lon="17.7104362">
        <ele>62.6229</ele>
        <time>2012-04-16T17:53:04Z</time>
      </trkpt>
      <trkpt lat="59.9497404" lon="17.7105274">
        <ele>65.5071</ele>
        <time>2012-04-16T17:53:10Z</time>
      </trkpt>
      <trkpt lat="59.9497747" lon="17.7105525">
        <ele>65.0264</ele>
        <time>2012-04-16T17:53:12Z</time>
      </trkpt>
      <trkpt lat="59.9497694" lon="17.7106617">
        <ele>59.2584</ele>
        <time>2012-04-16T17:53:17Z</time>
      </trkpt>
      <trkpt lat="59.949767" lon="17.710769">
        <ele>56.3745</ele>
        <time>2012-04-16T17:53:21Z</time>
      </trkpt>
      <trkpt lat="59.9497757" lon="17.7108021">
        <ele>55.8938</ele>
        <time>2012-04-16T17:53:23Z</time>
      </trkpt>
      <trkpt lat="59.9498498" lon="17.7108083">
        <ele>53.4905</ele>
        <time>2012-04-16T17:53:28Z</time>
      </trkpt>
      <trkpt lat="59.9498929" lon="17.7107861">
        <ele>51.0872</ele>
        <time>2012-04-16T17:53:32Z</time>
      </trkpt>
      <trkpt lat="59.949927" lon="17.7107768">
        <ele>49.6453</ele>
        <time>2012-04-16T17:53:35Z</time>
      </trkpt>
      <trkpt lat="59.9499767" lon="17.7107427">
        <ele>48.2034</ele>
        <time>2012-04-16T17:53:40Z</time>
      </trkpt>
      <trkpt lat="59.949989" lon="17.7107383">
        <ele>47.7225</ele>
        <time>2012-04-16T17:53:41Z</time>
      </trkpt>
      <trkpt lat="59.950028" lon="17.7107139">
        <ele>46.2806</ele>
        <time>2012-04-16T17:53:45Z</time>
      </trkpt>
      <trkpt lat="59.9500595" lon="17.7106797">
        <ele>45.3192</ele>
        <time>2012-04-16T17:53:49Z</time>
      </trkpt>
      <trkpt lat="59.9501148" lon="17.7106779">
        <ele>43.8773</ele>
        <time>2012-04-16T17:53:54Z</time>
      </trkpt>
      <trkpt lat="59.9501414" lon="17.7107116">
        <ele>43.3966</ele>
        <time>2012-04-16T17:53:56Z</time>
      </trkpt>
      <trkpt lat="59.9501892" lon="17.7108626">
        <ele>42.916</ele>
        <time>2012-04-16T17:54:03Z</time>
      </trkpt>
      <trkpt lat="59.9501979" lon="17.7109284">
        <ele>42.916</ele>
        <time>2012-04-16T17:54:06Z</time>
      </trkpt>
      <trkpt lat="59.9501978" lon="17.7110265">
        <ele>42.916</ele>
        <time>2012-04-16T17:54:10Z</time>
      </trkpt>
      <trkpt lat="59.9501773" lon="17.711144">
        <ele>42.4354</ele>
        <time>2012-04-16T17:54:15Z</time>
      </trkpt>
      <trkpt lat="59.9501804" lon="17.711257">
        <ele>46.2806</ele>
        <time>2012-04-16T17:54:52Z</time>
      </trkpt>
      <trkpt lat="59.9501796" lon="17.7112448">
        <ele>46.2806</ele>
        <time>2012-04-16T17:54:53Z</time>
      </trkpt>
      <trkpt lat="59.950202" lon="17.7110015">
        <ele>47.7225</ele>
        <time>2012-04-16T17:54:58Z</time>
      </trkpt>
      <trkpt lat="59.9501767" lon="17.7108072">
        <ele>48.684</ele>
        <time>2012-04-16T17:55:02Z</time>
      </trkpt>
      <trkpt lat="59.9501155" lon="17.7106475">
        <ele>48.684</ele>
        <time>2012-04-16T17:55:06Z</time>
      </trkpt>
      <trkpt lat="59.9500407" lon="17.7105906">
        <ele>50.6066</ele>
        <time>2012-04-16T17:55:10Z</time>
      </trkpt>
      <trkpt lat="59.9499477" lon="17.7106197">
        <ele>51.0872</ele>
        <time>2012-04-16T17:55:14Z</time>
      </trkpt>
      <trkpt lat="59.9499249" lon="17.7106302">
        <ele>51.0872</ele>
        <time>2012-04-16T17:55:15Z</time>
      </trkpt>
      <trkpt lat="59.9498711" lon="17.7106737">
        <ele>51.0872</ele>
        <time>2012-04-16T17:55:18Z</time>
      </trkpt>
      <trkpt lat="59.9497541" lon="17.7107807">
        <ele>51.5679</ele>
        <time>2012-04-16T17:55:24Z</time>
      </trkpt>
      <trkpt lat="59.9496758" lon="17.7107501">
        <ele>52.0486</ele>
        <time>2012-04-16T17:55:28Z</time>
      </trkpt>
      <trkpt lat="59.9496248" lon="17.7106432">
        <ele>53.0098</ele>
        <time>2012-04-16T17:55:32Z</time>
      </trkpt>
      <trkpt lat="59.9496244" lon="17.7106074">
        <ele>53.4905</ele>
        <time>2012-04-16T17:55:33Z</time>
      </trkpt>
      <trkpt lat="59.9495799" lon="17.7104267">
        <ele>56.3745</ele>
        <time>2012-04-16T17:55:40Z</time>
      </trkpt>
      <trkpt lat="59.9495048" lon="17.7103483">
        <ele>57.8165</ele>
        <time>2012-04-16T17:55:45Z</time>
      </trkpt>
      <trkpt lat="59.949516" lon="17.7103675">
        <ele>58.7777</ele>
        <time>2012-04-16T17:56:08Z</time>
      </trkpt>
      <trkpt lat="59.9495171" lon="17.7103816">
        <ele>58.7777</ele>
        <time>2012-04-16T17:56:09Z</time>
      </trkpt>
      <trkpt lat="59.9495266" lon="17.7104574">
        <ele>57.8165</ele>
        <time>2012-04-16T17:56:12Z</time>
      </trkpt>
      <trkpt lat="59.9495208" lon="17.7105017">
        <ele>56.8551</ele>
        <time>2012-04-16T17:56:14Z</time>
      </trkpt>
      <trkpt lat="59.949497" lon="17.7105743">
        <ele>56.8551</ele>
        <time>2012-04-16T17:56:18Z</time>
      </trkpt>
      <trkpt lat="59.9494498" lon="17.7106618">
        <ele>55.4131</ele>
        <time>2012-04-16T17:56:24Z</time>
      </trkpt>
      <trkpt lat="59.9494052" lon="17.7107457">
        <ele>53.4905</ele>
        <time>2012-04-16T17:56:28Z</time>
      </trkpt>
      <trkpt lat="59.949396" lon="17.7107732">
        <ele>53.4905</ele>
        <time>2012-04-16T17:56:29Z</time>
      </trkpt>
      <trkpt lat="59.9493686" lon="17.7109112">
        <ele>53.9712</ele>
        <time>2012-04-16T17:56:34Z</time>
      </trkpt>
      <trkpt lat="59.9494347" lon="17.710987">
        <ele>54.9324</ele>
        <time>2012-04-16T17:56:38Z</time>
      </trkpt>
      <trkpt lat="59.9494835" lon="17.7110262">
        <ele>53.9712</ele>
        <time>2012-04-16T17:56:42Z</time>
      </trkpt>
      <trkpt lat="59.9495209" lon="17.7110314">
        <ele>53.0098</ele>
        <time>2012-04-16T17:56:46Z</time>
      </trkpt>
      <trkpt lat="59.9495461" lon="17.7110367">
        <ele>53.0098</ele>
        <time>2012-04-16T17:56:48Z</time>
      </trkpt>
      <trkpt lat="59.9496104" lon="17.7109965">
        <ele>53.4905</ele>
        <time>2012-04-16T17:56:53Z</time>
      </trkpt>
      <trkpt lat="59.9496638" lon="17.7109609">
        <ele>54.9324</ele>
        <time>2012-04-16T17:56:57Z</time>
      </trkpt>
      <trkpt lat="59.9497177" lon="17.7109901">
        <ele>54.4518</ele>
        <time>2012-04-16T17:57:01Z</time>
      </trkpt>
      <trkpt lat="59.9497764" lon="17.7109462">
        <ele>53.4905</ele>
        <time>2012-04-16T17:57:05Z</time>
      </trkpt>
      <trkpt lat="59.9498399" lon="17.7109265">
        <ele>53.0098</ele>
        <time>2012-04-16T17:57:09Z</time>
      </trkpt>
      <trkpt lat="59.9499242" lon="17.7108782">
        <ele>51.0872</ele>
        <time>2012-04-16T17:57:15Z</time>
      </trkpt>
      <trkpt lat="59.9499368" lon="17.7108596">
        <ele>49.6453</ele>
        <time>2012-04-16T17:57:17Z</time>
      </trkpt>
      <trkpt lat="59.9499825" lon="17.7108118">
        <ele>46.2806</ele>
        <time>2012-04-16T17:57:22Z</time>
      </trkpt>
      <trkpt lat="59.9499949" lon="17.7108079">
        <ele>45.7999</ele>
        <time>2012-04-16T17:57:23Z</time>
      </trkpt>
      <trkpt lat="59.9500238" lon="17.7108209">
        <ele>44.8386</ele>
        <time>2012-04-16T17:57:25Z</time>
      </trkpt>
      <trkpt lat="59.9500948" lon="17.710855">
        <ele>42.916</ele>
        <time>2012-04-16T17:57:30Z</time>
      </trkpt>
      <trkpt lat="59.9501182" lon="17.7110009">
        <ele>40.9934</ele>
        <time>2012-04-16T17:57:34Z</time>
      </trkpt>
      <trkpt lat="59.950115" lon="17.7110331">
        <ele>39.5513</ele>
        <time>2012-04-16T17:57:35Z</time>
      </trkpt>
      <trkpt lat="59.9501052" lon="17.7110698">
        <ele>37.6287</ele>
        <time>2012-04-16T17:57:37Z</time>
      </trkpt>
      <trkpt lat="59.950084" lon="17.7111399">
        <ele>35.7061</ele>
        <time>2012-04-16T17:57:41Z</time>
      </trkpt>
      <trkpt lat="59.9500643" lon="17.7112164">
        <ele>34.7449</ele>
        <time>2012-04-16T17:57:43Z</time>
      </trkpt>
      <trkpt lat="59.9500175" lon="17.7112916">
        <ele>34.7449</ele>
        <time>2012-04-16T17:57:48Z</time>
      </trkpt>
      <trkpt lat="59.9500068" lon="17.7113052">
        <ele>34.7449</ele>
        <time>2012-04-16T17:57:49Z</time>
      </trkpt>
      <trkpt lat="59.9499506" lon="17.7113622">
        <ele>46.7612</ele>
        <time>2012-04-16T17:58:21Z</time>
      </trkpt>
      <trkpt lat="59.949956" lon="17.7113512">
        <ele>46.7612</ele>
        <time>2012-04-16T17:58:22Z</time>
      </trkpt>
      <trkpt lat="59.9499606" lon="17.7113313">
        <ele>46.7612</ele>
        <time>2012-04-16T17:58:23Z</time>
      </trkpt>
      <trkpt lat="59.9500408" lon="17.7111092">
        <ele>48.684</ele>
        <time>2012-04-16T17:58:28Z</time>
      </trkpt>
      <trkpt lat="59.9500726" lon="17.7109534">
        <ele>50.126</ele>
        <time>2012-04-16T17:58:32Z</time>
      </trkpt>
      <trkpt lat="59.9500744" lon="17.7109128">
        <ele>50.6066</ele>
        <time>2012-04-16T17:58:33Z</time>
      </trkpt>
      <trkpt lat="59.949989" lon="17.7108656">
        <ele>50.6066</ele>
        <time>2012-04-16T17:58:38Z</time>
      </trkpt>
      <trkpt lat="59.9499263" lon="17.7109003">
        <ele>49.6453</ele>
        <time>2012-04-16T17:58:41Z</time>
      </trkpt>
      <trkpt lat="59.9497979" lon="17.710972">
        <ele>47.7225</ele>
        <time>2012-04-16T17:58:47Z</time>
      </trkpt>
      <trkpt lat="59.9497207" lon="17.7109884">
        <ele>47.7225</ele>
        <time>2012-04-16T17:58:50Z</time>
      </trkpt>
      <trkpt lat="59.9496354" lon="17.7110019">
        <ele>47.7225</ele>
        <time>2012-04-16T17:58:54Z</time>
      </trkpt>
      <trkpt lat="59.949583" lon="17.7109689">
        <ele>48.2034</ele>
        <time>2012-04-16T17:58:57Z</time>
      </trkpt>
      <trkpt lat="59.9494458" lon="17.710932">
        <ele>49.1646</ele>
        <time>2012-04-16T17:59:03Z</time>
      </trkpt>
      <trkpt lat="59.9493861" lon="17.7108933">
        <ele>49.1646</ele>
        <time>2012-04-16T17:59:06Z</time>
      </trkpt>
      <trkpt lat="59.9493571" lon="17.7107265">
        <ele>52.5292</ele>
        <time>2012-04-16T17:59:11Z</time>
      </trkpt>
      <trkpt lat="59.9493862" lon="17.710656">
        <ele>55.4131</ele>
        <time>2012-04-16T17:59:14Z</time>
      </trkpt>
      <trkpt lat="59.9494173" lon="17.7105514">
        <ele>56.3745</ele>
        <time>2012-04-16T17:59:17Z</time>
      </trkpt>
      <trkpt lat="59.9494909" lon="17.7104534">
        <ele>55.8938</ele>
        <time>2012-04-16T17:59:21Z</time>
      </trkpt>
      <trkpt lat="59.9498124" lon="17.7094688">
        <ele>59.2584</ele>
        <time>2012-04-16T18:00:37Z</time>
      </trkpt>
      <trkpt lat="59.9498265" lon="17.7093552">
        <ele>59.7391</ele>
        <time>2012-04-16T18:00:40Z</time>
      </trkpt>
      <trkpt lat="59.9498244" lon="17.7092921">
        <ele>59.7391</ele>
        <time>2012-04-16T18:00:42Z</time>
      </trkpt>
      <trkpt lat="59.9498268" lon="17.7091367">
        <ele>58.7777</ele>
        <time>2012-04-16T18:00:46Z</time>
      </trkpt>
      <trkpt lat="59.9498475" lon="17.7090285">
        <ele>58.7777</ele>
        <time>2012-04-16T18:00:50Z</time>
      </trkpt>
      <trkpt lat="59.9499016" lon="17.7088829">
        <ele>57.3358</ele>
        <time>2012-04-16T18:00:55Z</time>
      </trkpt>
      <trkpt lat="59.9499042" lon="17.7088249">
        <ele>56.3745</ele>
        <time>2012-04-16T18:00:58Z</time>
      </trkpt>
      <trkpt lat="59.9499042" lon="17.7087662">
        <ele>55.8938</ele>
        <time>2012-04-16T18:01:02Z</time>
      </trkpt>
      <trkpt lat="59.9499323" lon="17.7086229">
        <ele>55.4131</ele>
        <time>2012-04-16T18:01:09Z</time>
      </trkpt>
      <trkpt lat="59.9499688" lon="17.7085294">
        <ele>53.4905</ele>
        <time>2012-04-16T18:01:14Z</time>
      </trkpt>
      <trkpt lat="59.9499952" lon="17.7083986">
        <ele>52.0486</ele>
        <time>2012-04-16T18:01:20Z</time>
      </trkpt>
      <trkpt lat="59.9499996" lon="17.7083716">
        <ele>51.5679</ele>
        <time>2012-04-16T18:01:21Z</time>
      </trkpt>
      <trkpt lat="59.9500294" lon="17.7082901">
        <ele>50.6066</ele>
        <time>2012-04-16T18:01:25Z</time>
      </trkpt>
      <trkpt lat="59.9500845" lon="17.7082029">
        <ele>49.6453</ele>
        <time>2012-04-16T18:01:30Z</time>
      </trkpt>
      <trkpt lat="59.9501461" lon="17.7081005">
        <ele>48.684</ele>
        <time>2012-04-16T18:01:36Z</time>
      </trkpt>
      <trkpt lat="59.9502486" lon="17.7080637">
        <ele>46.7612</ele>
        <time>2012-04-16T18:01:43Z</time>
      </trkpt>
      <trkpt lat="59.9503158" lon="17.7080536">
        <ele>44.8386</ele>
        <time>2012-04-16T18:01:47Z</time>
      </trkpt>
      <trkpt lat="59.9503821" lon="17.7081438">
        <ele>43.8773</ele>
        <time>2012-04-16T18:01:53Z</time>
      </trkpt>
      <trkpt lat="59.9504363" lon="17.7082459">
        <ele>41.474</ele>
        <time>2012-04-16T18:01:59Z</time>
      </trkpt>
      <trkpt lat="59.9504838" lon="17.7082794">
        <ele>38.1094</ele>
        <time>2012-04-16T18:02:03Z</time>
      </trkpt>
      <trkpt lat="59.9504886" lon="17.7083035">
        <ele>36.1868</ele>
        <time>2012-04-16T18:02:05Z</time>
      </trkpt>
      <trkpt lat="59.9505192" lon="17.7083773">
        <ele>32.8223</ele>
        <time>2012-04-16T18:02:12Z</time>
      </trkpt>
      <trkpt lat="59.9505648" lon="17.7084234">
        <ele>33.3029</ele>
        <time>2012-04-16T18:02:15Z</time>
      </trkpt>
      <trkpt lat="59.9506474" lon="17.7084685">
        <ele>34.2642</ele>
        <time>2012-04-16T18:02:21Z</time>
      </trkpt>
      <trkpt lat="59.9506653" lon="17.7084763">
        <ele>37.6287</ele>
        <time>2012-04-16T18:02:27Z</time>
      </trkpt>
      <trkpt lat="59.9506621" lon="17.7084699">
        <ele>38.1094</ele>
        <time>2012-04-16T18:02:28Z</time>
      </trkpt>
      <trkpt lat="59.950652" lon="17.7084597">
        <ele>39.0707</ele>
        <time>2012-04-16T18:02:29Z</time>
      </trkpt>
      <trkpt lat="59.9505774" lon="17.7083118">
        <ele>39.5513</ele>
        <time>2012-04-16T18:02:33Z</time>
      </trkpt>
      <trkpt lat="59.95047" lon="17.7081581">
        <ele>40.5128</ele>
        <time>2012-04-16T18:02:39Z</time>
      </trkpt>
      <trkpt lat="59.9503974" lon="17.7081074">
        <ele>42.4354</ele>
        <time>2012-04-16T18:02:42Z</time>
      </trkpt>
      <trkpt lat="59.9502989" lon="17.707951">
        <ele>46.7612</ele>
        <time>2012-04-16T18:02:48Z</time>
      </trkpt>
      <trkpt lat="59.9502112" lon="17.7079251">
        <ele>50.126</ele>
        <time>2012-04-16T18:02:53Z</time>
      </trkpt>
      <trkpt lat="59.9501705" lon="17.7079318">
        <ele>51.5679</ele>
        <time>2012-04-16T18:02:55Z</time>
      </trkpt>
      <trkpt lat="59.9500726" lon="17.7080524">
        <ele>53.0098</ele>
        <time>2012-04-16T18:03:00Z</time>
      </trkpt>
      <trkpt lat="59.9499823" lon="17.708241">
        <ele>55.8938</ele>
        <time>2012-04-16T18:03:06Z</time>
      </trkpt>
      <trkpt lat="59.9499188" lon="17.7084649">
        <ele>57.3358</ele>
        <time>2012-04-16T18:03:12Z</time>
      </trkpt>
      <trkpt lat="59.9499119" lon="17.7085561">
        <ele>57.8165</ele>
        <time>2012-04-16T18:03:15Z</time>
      </trkpt>
      <trkpt lat="59.9498779" lon="17.7086706">
        <ele>55.8938</ele>
        <time>2012-04-16T18:03:21Z</time>
      </trkpt>
      <trkpt lat="59.9498699" lon="17.7087659">
        <ele>54.9324</ele>
        <time>2012-04-16T18:03:26Z</time>
      </trkpt>
      <trkpt lat="59.9498617" lon="17.7088107">
        <ele>54.9324</ele>
        <time>2012-04-16T18:03:28Z</time>
      </trkpt>
      <trkpt lat="59.9498564" lon="17.7088461">
        <ele>55.4131</ele>
        <time>2012-04-16T18:03:30Z</time>
      </trkpt>
      <trkpt lat="59.9498341" lon="17.7089699">
        <ele>56.3745</ele>
        <time>2012-04-16T18:03:37Z</time>
      </trkpt>
      <trkpt lat="59.9498092" lon="17.7090917">
        <ele>57.8165</ele>
        <time>2012-04-16T18:03:44Z</time>
      </trkpt>
      <trkpt lat="59.9498011" lon="17.7092166">
        <ele>58.7777</ele>
        <time>2012-04-16T18:03:50Z</time>
      </trkpt>
      <trkpt lat="59.949799" lon="17.7092624">
        <ele>59.2584</ele>
        <time>2012-04-16T18:03:52Z</time>
      </trkpt>
      <trkpt lat="59.9497862" lon="17.7094439">
        <ele>63.1036</ele>
        <time>2012-04-16T18:04:24Z</time>
      </trkpt>
      <trkpt lat="59.9497776" lon="17.7094475">
        <ele>63.1036</ele>
        <time>2012-04-16T18:04:25Z</time>
      </trkpt>
      <trkpt lat="59.9497669" lon="17.7094535">
        <ele>62.6229</ele>
        <time>2012-04-16T18:04:26Z</time>
      </trkpt>
      <trkpt lat="59.9497315" lon="17.7094391">
        <ele>62.6229</ele>
        <time>2012-04-16T18:04:27Z</time>
      </trkpt>
      <trkpt lat="59.949652" lon="17.709261">
        <ele>60.2197</ele>
        <time>2012-04-16T18:04:31Z</time>
      </trkpt>
      <trkpt lat="59.9496743" lon="17.7090619">
        <ele>57.8165</ele>
        <time>2012-04-16T18:04:36Z</time>
      </trkpt>
      <trkpt lat="59.9496851" lon="17.7090252">
        <ele>57.3358</ele>
        <time>2012-04-16T18:04:37Z</time>
      </trkpt>
      <trkpt lat="59.9497296" lon="17.7087903">
        <ele>53.9712</ele>
        <time>2012-04-16T18:04:42Z</time>
      </trkpt>
      <trkpt lat="59.949815" lon="17.7085985">
        <ele>50.6066</ele>
        <time>2012-04-16T18:04:48Z</time>
      </trkpt>
      <trkpt lat="59.9498726" lon="17.7084375">
        <ele>48.684</ele>
        <time>2012-04-16T18:04:52Z</time>
      </trkpt>
      <trkpt lat="59.9499076" lon="17.708296">
        <ele>47.2418</ele>
        <time>2012-04-16T18:04:56Z</time>
      </trkpt>
      <trkpt lat="59.949926" lon="17.708182">
        <ele>46.7612</ele>
        <time>2012-04-16T18:04:59Z</time>
      </trkpt>
      <trkpt lat="59.9499591" lon="17.7080593">
        <ele>46.2806</ele>
        <time>2012-04-16T18:05:02Z</time>
      </trkpt>
      <trkpt lat="59.9500026" lon="17.7078961">
        <ele>44.8386</ele>
        <time>2012-04-16T18:05:06Z</time>
      </trkpt>
      <trkpt lat="59.9500881" lon="17.7077686">
        <ele>43.8773</ele>
        <time>2012-04-16T18:05:11Z</time>
      </trkpt>
      <trkpt lat="59.9501984" lon="17.7076902">
        <ele>43.8773</ele>
        <time>2012-04-16T18:05:16Z</time>
      </trkpt>
      <trkpt lat="59.950273" lon="17.7076467">
        <ele>42.916</ele>
        <time>2012-04-16T18:05:21Z</time>
      </trkpt>
      <trkpt lat="59.9502847" lon="17.7076402">
        <ele>42.916</ele>
        <time>2012-04-16T18:05:22Z</time>
      </trkpt>
      <trkpt lat="59.9503278" lon="17.7075937">
        <ele>42.4354</ele>
        <time>2012-04-16T18:05:26Z</time>
      </trkpt>
      <trkpt lat="59.95039" lon="17.7075888">
        <ele>41.9547</ele>
        <time>2012-04-16T18:05:29Z</time>
      </trkpt>
      <trkpt lat="59.9504425" lon="17.7077448">
        <ele>41.474</ele>
        <time>2012-04-16T18:05:33Z</time>
      </trkpt>
      <trkpt lat="59.9504699" lon="17.7078132">
        <ele>41.474</ele>
        <time>2012-04-16T18:05:35Z</time>
      </trkpt>
      <trkpt lat="59.9505553" lon="17.7079929">
        <ele>40.9934</ele>
        <time>2012-04-16T18:05:40Z</time>
      </trkpt>
      <trkpt lat="59.9505989" lon="17.708082">
        <ele>40.9934</ele>
        <time>2012-04-16T18:05:42Z</time>
      </trkpt>
      <trkpt lat="59.9506573" lon="17.708199">
        <ele>40.5128</ele>
        <time>2012-04-16T18:05:45Z</time>
      </trkpt>
      <trkpt lat="59.9507491" lon="17.7083809">
        <ele>41.474</ele>
        <time>2012-04-16T18:05:50Z</time>
      </trkpt>
      <trkpt lat="59.9508283" lon="17.7084859">
        <ele>42.916</ele>
        <time>2012-04-16T18:05:54Z</time>
      </trkpt>
      <trkpt lat="59.9509605" lon="17.7099386">
        <ele>42.4354</ele>
        <time>2012-04-16T18:07:27Z</time>
      </trkpt>
      <trkpt lat="59.9509801" lon="17.7099406">
        <ele>41.9547</ele>
        <time>2012-04-16T18:07:28Z</time>
      </trkpt>
      <trkpt lat="59.9510001" lon="17.7099568">
        <ele>41.474</ele>
        <time>2012-04-16T18:07:29Z</time>
      </trkpt>
      <trkpt lat="59.951142" lon="17.7100208">
        <ele>40.9934</ele>
        <time>2012-04-16T18:07:34Z</time>
      </trkpt>
      <trkpt lat="59.951337" lon="17.7099598">
        <ele>39.5513</ele>
        <time>2012-04-16T18:07:40Z</time>
      </trkpt>
      <trkpt lat="59.9514146" lon="17.7099322">
        <ele>38.5901</ele>
        <time>2012-04-16T18:07:42Z</time>
      </trkpt>
      <trkpt lat="59.9597586" lon="17.7194252">
        <ele>47.7225</ele>
        <time>2012-04-16T18:21:57Z</time>
      </trkpt>
      <trkpt lat="59.9597676" lon="17.7193607">
        <ele>47.2418</ele>
        <time>2012-04-16T18:21:59Z</time>
      </trkpt>
      <trkpt lat="59.9597925" lon="17.7192532">
        <ele>46.7612</ele>
        <time>2012-04-16T18:22:04Z</time>
      </trkpt>
    </trkseg>
  </trk>
</gpx>